Time;durP1;ratioP1;P1;durP2;ratioP2;P2;SDS_P1;SDS_P2;PMS_P1;PMS_P2;Temp;Humidity;BMP_temperature;BMP_pressure;BME280_temperature;BME280_humidity;BME280_pressure;Samples;Min_cycle;Max_cycle;Signal;HPM_P1;HPM_P2
2022/07/25 00:00:34;;;;;;;9.23;8.18;;;;;;;;;;6158237;23;20005;-69
2022/07/25 00:03:00;;;;;;;9.23;8.15;;;;;;;;;;6158284;23;20097;-69
2022/07/25 00:05:26;;;;;;;8.75;7.93;;;;;;;;;;6157946;23;20060;-69
2022/07/25 00:07:52;;;;;;;9.40;7.20;;;;;;;;;;6157936;23;20456;-69
2022/07/25 00:10:19;;;;;;;8.68;7.50;;;;;;;;;;6157979;23;20079;-69
2022/07/25 00:12:45;;;;;;;8.57;7.88;;;;;;;;;;6158986;23;20020;-69
2022/07/25 00:15:12;;;;;;;8.85;7.95;;;;;;;;;;6157887;23;20059;-69
2022/07/25 00:17:38;;;;;;;8.77;7.88;;;;;;;;;;6158205;23;20009;-69
2022/07/25 00:20:05;;;;;;;8.15;7.45;;;;;;;;;;6158191;23;20005;-69
2022/07/25 00:22:32;;;;;;;9.88;7.95;;;;;;;;;;6157414;23;20404;-69
2022/07/25 00:24:58;;;;;;;9.23;8.32;;;;;;;;;;6157999;23;20001;-69
2022/07/25 00:27:24;;;;;;;9.18;7.72;;;;;;;;;;6158148;23;20006;-69
2022/07/25 00:29:50;;;;;;;8.70;7.88;;;;;;;;;;6158201;23;20005;-69
2022/07/25 00:32:16;;;;;;;9.23;8.40;;;;;;;;;;6158061;23;20032;-69
2022/07/25 00:34:42;;;;;;;9.07;8.23;;;;;;;;;;6158307;23;20004;-69
2022/07/25 00:37:08;;;;;;;8.95;8.15;;;;;;;;;;6158677;23;20001;-69
2022/07/25 00:39:35;;;;;;;8.43;7.65;;;;;;;;;;6157438;23;20028;-69
2022/07/25 00:42:01;;;;;;;8.90;8.15;;;;;;;;;;6158810;23;20014;-69
2022/07/25 00:44:29;;;;;;;8.43;7.72;;;;;;;;;;6157985;23;20089;-69
2022/07/25 00:46:55;;;;;;;8.10;7.35;;;;;;;;;;6157929;23;20025;-69
2022/07/25 00:49:21;;;;;;;8.77;7.88;;;;;;;;;;6157889;23;20052;-69
2022/07/25 00:51:48;;;;;;;9.27;8.38;;;;;;;;;;6158185;23;20005;-69
2022/07/25 00:54:14;;;;;;;8.65;7.90;;;;;;;;;;6157729;23;20024;-69
2022/07/25 00:56:41;;;;;;;8.63;7.68;;;;;;;;;;6157490;23;20005;-69
2022/07/25 00:59:07;;;;;;;8.52;7.75;;;;;;;;;;6157800;23;20053;-69
2022/07/25 01:01:33;;;;;;;9.23;8.35;;;;;;;;;;6157694;23;20005;-69
2022/07/25 01:04:00;;;;;;;9.20;7.63;;;;;;;;;;6157919;23;20101;-69
2022/07/25 01:06:26;;;;;;;10.65;8.05;;;;;;;;;;6156715;23;20113;-69
2022/07/25 01:08:53;;;;;;;8.85;7.93;;;;;;;;;;6157526;23;20001;-69
2022/07/25 01:11:19;;;;;;;8.63;7.82;;;;;;;;;;6157713;23;20076;-69
2022/07/25 01:13:46;;;;;;;8.85;7.95;;;;;;;;;;6158006;23;20005;-69
2022/07/25 01:16:12;;;;;;;10.70;8.43;;;;;;;;;;6158313;23;20032;-69
2022/07/25 01:18:38;;;;;;;9.20;8.40;;;;;;;;;;6157272;23;20073;-69
2022/07/25 01:21:04;;;;;;;9.70;7.50;;;;;;;;;;6157571;23;20001;-69
2022/07/25 01:23:31;;;;;;;9.65;7.93;;;;;;;;;;6157611;23;20009;-69
2022/07/25 01:25:57;;;;;;;8.52;7.50;;;;;;;;;;6158227;23;20005;-69
2022/07/25 01:28:23;;;;;;;8.73;7.93;;;;;;;;;;6157987;23;20018;-69
2022/07/25 01:30:49;;;;;;;9.32;7.93;;;;;;;;;;6158199;23;20037;-69
2022/07/25 01:33:16;;;;;;;7.10;6.45;;;;;;;;;;6158191;23;20401;-69
2022/07/25 01:35:42;;;;;;;8.50;7.60;;;;;;;;;;6157816;23;20012;-69
2022/07/25 01:38:08;;;;;;;8.57;7.45;;;;;;;;;;6157165;23;20006;-69
2022/07/25 01:40:34;;;;;;;9.70;7.93;;;;;;;;;;6157519;23;20028;-69
2022/07/25 01:43:00;;;;;;;8.38;7.53;;;;;;;;;;6158050;23;20010;-69
2022/07/25 01:45:26;;;;;;;8.27;7.43;;;;;;;;;;6157047;23;20008;-69
2022/07/25 01:47:53;;;;;;;7.43;6.72;;;;;;;;;;6157708;23;20005;-69
2022/07/25 01:50:19;;;;;;;9.48;7.65;;;;;;;;;;6157361;23;20028;-69
2022/07/25 01:52:46;;;;;;;10.02;7.03;;;;;;;;;;6158046;23;20009;-69
2022/07/25 01:55:12;;;;;;;6.97;6.38;;;;;;;;;;6156272;23;20021;-69
2022/07/25 01:57:39;;;;;;;7.55;6.78;;;;;;;;;;6157314;23;20006;-69
2022/07/25 02:00:06;;;;;;;11.70;7.15;;;;;;;;;;6157398;23;20024;-69
2022/07/25 02:02:33;;;;;;;9.70;6.72;;;;;;;;;;6156764;23;20076;-69
2022/07/25 02:04:59;;;;;;;9.10;7.15;;;;;;;;;;6156837;23;20303;-69
2022/07/25 02:07:25;;;;;;;8.57;7.47;;;;;;;;;;6156817;23;20345;-69
2022/07/25 02:09:51;;;;;;;8.35;7.00;;;;;;;;;;6156609;23;20008;-69
2022/07/25 02:12:17;;;;;;;8.27;7.35;;;;;;;;;;6157279;23;20009;-69
2022/07/25 02:14:43;;;;;;;9.55;6.88;;;;;;;;;;6157263;23;19998;-69
2022/07/25 02:17:09;;;;;;;7.72;7.03;;;;;;;;;;6156576;23;20433;-69
2022/07/25 02:19:36;;;;;;;8.20;7.10;;;;;;;;;;6156685;23;20052;-69
2022/07/25 02:22:02;;;;;;;8.00;7.18;;;;;;;;;;6157078;23;20024;-69
2022/07/25 02:24:28;;;;;;;7.45;6.72;;;;;;;;;;6157128;23;20036;-69
2022/07/25 02:26:54;;;;;;;7.63;6.72;;;;;;;;;;6157054;23;20002;-69
2022/07/25 02:29:20;;;;;;;13.27;7.35;;;;;;;;;;6157315;23;20006;-69
2022/07/25 02:31:47;;;;;;;7.63;6.82;;;;;;;;;;6156991;23;20009;-69
2022/07/25 02:34:13;;;;;;;8.77;7.20;;;;;;;;;;6157375;23;20005;-69
2022/07/25 02:36:39;;;;;;;7.32;6.57;;;;;;;;;;6156630;23;20310;-69
2022/07/25 02:39:05;;;;;;;9.30;6.78;;;;;;;;;;6156663;23;20037;-69
2022/07/25 02:41:31;;;;;;;8.57;7.22;;;;;;;;;;6156484;23;20088;-69
2022/07/25 02:43:58;;;;;;;8.80;6.75;;;;;;;;;;6156821;23;20029;-69
2022/07/25 02:46:24;;;;;;;7.18;6.57;;;;;;;;;;6156503;23;20511;-69
2022/07/25 02:48:50;;;;;;;8.70;6.70;;;;;;;;;;6157064;23;20010;-69
2022/07/25 02:51:17;;;;;;;10.13;6.47;;;;;;;;;;6156819;23;20115;-69
2022/07/25 02:53:43;;;;;;;7.63;6.75;;;;;;;;;;6156084;23;20021;-69
2022/07/25 02:56:09;;;;;;;8.10;6.38;;;;;;;;;;6157495;23;20001;-69
2022/07/25 02:58:35;;;;;;;7.38;6.72;;;;;;;;;;6156407;23;20060;-68
2022/07/25 03:01:02;;;;;;;9.13;6.85;;;;;;;;;;6157028;23;20307;-69
2022/07/25 03:03:28;;;;;;;7.40;6.50;;;;;;;;;;6156626;23;20006;-69
2022/07/25 03:05:54;;;;;;;9.77;6.75;;;;;;;;;;6156735;23;20121;-69
2022/07/25 03:08:20;;;;;;;9.68;7.10;;;;;;;;;;6156511;23;20009;-69
2022/07/25 03:10:46;;;;;;;9.25;6.85;;;;;;;;;;6157020;23;20005;-69
2022/07/25 03:13:12;;;;;;;10.60;6.90;;;;;;;;;;6157370;23;20059;-69
2022/07/25 03:15:38;;;;;;;10.40;6.63;;;;;;;;;;6156436;23;20005;-69
2022/07/25 03:18:04;;;;;;;7.50;6.68;;;;;;;;;;6156304;23;20079;-69
2022/07/25 03:20:31;;;;;;;13.15;6.60;;;;;;;;;;6156586;23;20012;-69
2022/07/25 03:22:57;;;;;;;7.97;6.60;;;;;;;;;;6157290;23;20009;-69
2022/07/25 03:25:23;;;;;;;9.25;6.20;;;;;;;;;;6156291;23;20114;-69
2022/07/25 03:27:49;;;;;;;9.93;6.75;;;;;;;;;;6156663;23;20002;-69
2022/07/25 03:30:15;;;;;;;8.32;6.35;;;;;;;;;;6158510;23;20032;-69
2022/07/25 03:32:41;;;;;;;11.43;7.07;;;;;;;;;;6159597;23;20147;-69
2022/07/25 03:35:08;;;;;;;8.60;6.68;;;;;;;;;;6158596;23;20002;-68
2022/07/25 03:37:34;;;;;;;8.85;6.53;;;;;;;;;;6158312;23;19998;-69
2022/07/25 03:40:00;;;;;;;10.48;6.50;;;;;;;;;;6157921;23;20400;-69
2022/07/25 03:42:26;;;;;;;8.13;6.70;;;;;;;;;;6158730;23;20040;-69
2022/07/25 03:44:52;;;;;;;12.43;6.60;;;;;;;;;;6158619;23;20037;-69
2022/07/25 03:47:18;;;;;;;10.38;6.13;;;;;;;;;;6158828;23;20421;-69
2022/07/25 03:49:44;;;;;;;7.68;6.53;;;;;;;;;;6158468;23;20001;-69
2022/07/25 03:52:11;;;;;;;13.95;6.78;;;;;;;;;;6158110;23;20013;-69
2022/07/25 03:54:37;;;;;;;10.20;6.60;;;;;;;;;;6158139;23;20017;-69
2022/07/25 03:57:04;;;;;;;8.80;6.30;;;;;;;;;;6158093;23;20005;-69
2022/07/25 03:59:30;;;;;;;7.82;6.63;;;;;;;;;;6158691;23;20024;-69
2022/07/25 04:01:56;;;;;;;10.15;7.40;;;;;;;;;;6157920;23;20089;-69
2022/07/25 04:04:22;;;;;;;10.63;6.63;;;;;;;;;;6158802;23;20079;-68
2022/07/25 04:06:48;;;;;;;15.65;6.93;;;;;;;;;;6158221;23;20056;-69
2022/07/25 04:09:15;;;;;;;11.70;6.88;;;;;;;;;;6158286;23;19997;-69
2022/07/25 04:11:41;;;;;;;11.85;7.30;;;;;;;;;;6157946;23;20009;-69
2022/07/25 04:14:07;;;;;;;8.57;6.60;;;;;;;;;;6158761;23;20008;-69
2022/07/25 04:16:34;;;;;;;11.85;7.47;;;;;;;;;;6158185;23;20005;-69
2022/07/25 04:19:00;;;;;;;11.27;6.85;;;;;;;;;;6158189;23;20325;-69
2022/07/25 04:21:26;;;;;;;9.70;6.53;;;;;;;;;;6156812;23;20391;-69
2022/07/25 04:23:52;;;;;;;10.50;7.30;;;;;;;;;;6158144;23;20071;-69
2022/07/25 04:26:19;;;;;;;9.63;6.55;;;;;;;;;;6158801;23;20006;-69
2022/07/25 04:28:45;;;;;;;8.93;7.70;;;;;;;;;;6158615;23;20051;-69
2022/07/25 04:31:11;;;;;;;12.40;7.07;;;;;;;;;;6158403;23;20492;-69
2022/07/25 04:33:38;;;;;;;12.23;7.80;;;;;;;;;;6158709;23;20429;-69
2022/07/25 04:36:04;;;;;;;9.52;7.00;;;;;;;;;;6158021;23;20488;-69
2022/07/25 04:38:30;;;;;;;10.07;7.53;;;;;;;;;;6157471;23;20005;-68
2022/07/25 04:40:57;;;;;;;10.65;7.45;;;;;;;;;;6157883;23;20025;-68
2022/07/25 04:43:23;;;;;;;12.20;7.25;;;;;;;;;;6158551;23;20041;-69
2022/07/25 04:45:49;;;;;;;9.80;6.82;;;;;;;;;;6157964;23;20006;-68
2022/07/25 04:48:15;;;;;;;11.95;7.65;;;;;;;;;;6158579;23;20410;-68
2022/07/25 04:50:41;;;;;;;11.68;7.20;;;;;;;;;;6157654;23;20012;-68
2022/07/25 04:53:07;;;;;;;12.63;7.47;;;;;;;;;;6158399;23;20005;-69
2022/07/25 04:55:35;;;;;;;10.73;6.93;;;;;;;;;;6157298;23;20022;-69
2022/07/25 04:58:01;;;;;;;10.65;6.88;;;;;;;;;;6158649;23;20002;-68
2022/07/25 05:00:27;;;;;;;10.90;7.90;;;;;;;;;;6157498;23;20074;-69
2022/07/25 05:02:53;;;;;;;12.07;7.32;;;;;;;;;;6158416;23;20005;-69
2022/07/25 05:05:19;;;;;;;10.77;7.40;;;;;;;;;;6157790;23;20060;-68
2022/07/25 05:07:46;;;;;;;12.40;7.07;;;;;;;;;;6157735;23;20001;-69
2022/07/25 05:10:12;;;;;;;13.38;7.40;;;;;;;;;;6157120;23;20009;-69
2022/07/25 05:12:38;;;;;;;10.30;7.05;;;;;;;;;;6157373;23;20081;-69
2022/07/25 05:15:05;;;;;;;8.57;6.97;;;;;;;;;;6157657;23;20068;-68
2022/07/25 05:17:31;;;;;;;10.10;7.70;;;;;;;;;;6157680;23;20437;-69
2022/07/25 05:19:57;;;;;;;10.43;6.70;;;;;;;;;;6157606;23;20001;-69
2022/07/25 05:22:24;;;;;;;8.40;7.20;;;;;;;;;;6157842;23;20045;-69
2022/07/25 05:24:50;;;;;;;10.55;7.32;;;;;;;;;;6157373;23;20027;-69
2022/07/25 05:27:16;;;;;;;9.98;7.38;;;;;;;;;;6157586;23;20012;-68
2022/07/25 05:29:42;;;;;;;12.95;7.07;;;;;;;;;;6157545;23;20009;-68
2022/07/25 05:32:08;;;;;;;11.25;6.75;;;;;;;;;;6157598;23;20009;-68
2022/07/25 05:34:34;;;;;;;22.00;8.02;;;;;;;;;;6157564;23;19997;-68
2022/07/25 05:37:00;;;;;;;15.60;8.10;;;;;;;;;;6157564;23;20008;-68
2022/07/25 05:39:27;;;;;;;14.63;6.70;;;;;;;;;;6156809;23;19998;-68
2022/07/25 05:41:53;;;;;;;10.80;6.78;;;;;;;;;;6156952;23;20013;-69
2022/07/25 05:44:19;;;;;;;10.63;6.53;;;;;;;;;;6156941;23;20450;-71
2022/07/25 05:46:45;;;;;;;11.60;6.88;;;;;;;;;;6157427;23;20012;-71
2022/07/25 05:49:11;;;;;;;8.23;5.68;;;;;;;;;;6157338;23;20077;-71
2022/07/25 05:51:37;;;;;;;10.32;6.57;;;;;;;;;;6157699;23;20073;-71
2022/07/25 05:54:03;;;;;;;10.90;6.80;;;;;;;;;;6156900;23;20018;-70
2022/07/25 05:56:30;;;;;;;8.45;6.05;;;;;;;;;;6156973;23;20009;-71
2022/07/25 05:58:56;;;;;;;13.95;6.57;;;;;;;;;;6157157;23;20002;-71
2022/07/25 06:01:22;;;;;;;6.78;5.82;;;;;;;;;;6157488;23;20040;-71
2022/07/25 06:03:48;;;;;;;8.77;5.22;;;;;;;;;;6157471;23;20012;-71
2022/07/25 06:06:14;;;;;;;9.35;5.72;;;;;;;;;;6157176;23;20002;-71
2022/07/25 06:08:41;;;;;;;6.85;5.78;;;;;;;;;;6157424;23;20005;-71
2022/07/25 06:11:07;;;;;;;8.52;5.35;;;;;;;;;;6157083;23;20001;-71
2022/07/25 06:13:34;;;;;;;6.40;5.13;;;;;;;;;;6157256;23;20036;-70
2022/07/25 06:16:00;;;;;;;6.93;5.07;;;;;;;;;;6157449;23;20533;-69
2022/07/25 06:18:26;;;;;;;7.88;5.30;;;;;;;;;;6157037;23;20064;-69
2022/07/25 06:20:53;;;;;;;10.00;5.45;;;;;;;;;;6157081;23;20032;-69
2022/07/25 06:23:19;;;;;;;8.55;5.63;;;;;;;;;;6156412;23;20019;-69
2022/07/25 06:25:46;;;;;;;8.52;4.97;;;;;;;;;;6157013;23;20007;-69
2022/07/25 06:28:13;;;;;;;10.90;5.57;;;;;;;;;;6157015;23;20006;-69
2022/07/25 06:30:42;;;;;;;6.85;5.30;;;;;;;;;;6156909;23;20007;-69
2022/07/25 06:33:09;;;;;;;13.55;6.10;;;;;;;;;;6156992;23;20036;-69
2022/07/25 06:35:35;;;;;;;7.30;5.03;;;;;;;;;;6156919;23;20005;-69
2022/07/25 06:38:01;;;;;;;12.45;5.43;;;;;;;;;;6156289;23;20067;-69
2022/07/25 06:40:27;;;;;;;11.32;5.47;;;;;;;;;;6156523;23;20311;-69
2022/07/25 06:42:54;;;;;;;11.75;5.40;;;;;;;;;;6157514;23;20010;-69
2022/07/25 06:45:20;;;;;;;7.57;5.28;;;;;;;;;;6156479;23;20041;-68
2022/07/25 06:47:46;;;;;;;8.85;5.20;;;;;;;;;;6157149;23;20044;-69
2022/07/25 06:50:13;;;;;;;8.88;6.32;;;;;;;;;;6156449;23;20364;-69
2022/07/25 06:52:40;;;;;;;5.55;5.00;;;;;;;;;;6157099;23;20010;-69
2022/07/25 06:55:07;;;;;;;6.50;4.80;;;;;;;;;;6155866;23;20018;-69
2022/07/25 06:57:33;;;;;;;9.52;4.80;;;;;;;;;;6156768;23;20012;-69
2022/07/25 06:59:59;;;;;;;12.57;4.95;;;;;;;;;;6156843;23;20425;-69
2022/07/25 07:02:25;;;;;;;12.30;5.10;;;;;;;;;;6156126;23;20014;-69
2022/07/25 07:04:51;;;;;;;11.05;4.45;;;;;;;;;;6156101;23;20001;-69
2022/07/25 07:07:18;;;;;;;10.75;4.45;;;;;;;;;;6156362;23;20032;-69
2022/07/25 07:09:44;;;;;;;9.55;4.20;;;;;;;;;;6156098;23;20488;-69
2022/07/25 07:12:10;;;;;;;5.97;4.30;;;;;;;;;;6156063;23;20354;-68
2022/07/25 07:14:36;;;;;;;4.78;4.05;;;;;;;;;;6156759;23;20009;-69
2022/07/25 07:17:03;;;;;;;14.23;4.90;;;;;;;;;;6156233;23;20077;-69
2022/07/25 07:19:29;;;;;;;5.88;4.00;;;;;;;;;;6156541;23;20006;-69
2022/07/25 07:21:55;;;;;;;7.20;4.30;;;;;;;;;;6156591;23;20010;-69
2022/07/25 07:24:22;;;;;;;4.75;4.10;;;;;;;;;;6156493;23;20512;-69
2022/07/25 07:26:48;;;;;;;6.22;4.32;;;;;;;;;;6156281;23;20390;-69
2022/07/25 07:29:14;;;;;;;6.07;4.22;;;;;;;;;;6156629;23;20006;-69
2022/07/25 07:31:40;;;;;;;5.38;4.03;;;;;;;;;;6156844;23;20072;-69
2022/07/25 07:34:06;;;;;;;8.35;4.30;;;;;;;;;;6156703;23;20005;-69
2022/07/25 07:36:33;;;;;;;5.65;3.90;;;;;;;;;;6156216;23;20035;-69
2022/07/25 07:38:59;;;;;;;8.50;3.95;;;;;;;;;;6156351;23;20009;-69
2022/07/25 07:41:25;;;;;;;8.45;4.30;;;;;;;;;;6156775;23;20063;-69
2022/07/25 07:43:51;;;;;;;9.30;5.25;;;;;;;;;;6156783;23;20006;-69
2022/07/25 07:46:17;;;;;;;5.35;4.13;;;;;;;;;;6156777;23;20006;-69
2022/07/25 07:48:43;;;;;;;6.85;4.03;;;;;;;;;;6156524;23;20048;-68
2022/07/25 07:51:09;;;;;;;10.82;4.40;;;;;;;;;;6156365;23;20002;-68
2022/07/25 07:56:20;;;;;;;7.28;4.35;;;;;;;;;;6156525;23;20088;-68
2022/07/25 07:58:47;;;;;;;10.90;5.05;;;;;;;;;;6156384;23;20012;-68
2022/07/25 08:01:13;;;;;;;5.72;4.55;;;;;;;;;;6156279;23;20033;-68
2022/07/25 08:03:39;;;;;;;9.55;4.47;;;;;;;;;;6156599;23;20010;-68
2022/07/25 08:06:05;;;;;;;8.18;4.65;;;;;;;;;;6156394;23;20013;-68
2022/07/25 08:08:31;;;;;;;8.13;5.00;;;;;;;;;;6156251;23;20076;-68
2022/07/25 08:10:58;;;;;;;8.85;4.80;;;;;;;;;;6155952;23;20005;-68
2022/07/25 08:13:25;;;;;;;6.93;4.38;;;;;;;;;;6156425;23;20425;-68
2022/07/25 08:15:53;;;;;;;10.75;5.05;;;;;;;;;;6157479;23;20033;-68
2022/07/25 08:18:19;;;;;;;9.40;5.97;;;;;;;;;;6158399;23;20001;-68
2022/07/25 08:20:46;;;;;;;8.32;5.38;;;;;;;;;;6157841;23;20008;-68
2022/07/25 08:23:13;;;;;;;7.30;4.63;;;;;;;;;;6158580;23;20055;-68
2022/07/25 08:25:39;;;;;;;5.53;4.85;;;;;;;;;;6157718;23;20329;-68
2022/07/25 08:28:06;;;;;;;7.50;5.13;;;;;;;;;;6158779;23;19997;-68
2022/07/25 08:30:33;;;;;;;7.60;4.93;;;;;;;;;;6157721;23;20441;-68
2022/07/25 08:33:01;;;;;;;6.85;4.80;;;;;;;;;;6158586;23;20010;-68
2022/07/25 08:35:28;;;;;;;9.00;4.80;;;;;;;;;;6157610;23;20008;-68
2022/07/25 08:37:54;;;;;;;10.43;5.03;;;;;;;;;;6158624;23;20128;-68
2022/07/25 08:40:24;;;;;;;10.40;4.93;;;;;;;;;;6157462;23;20006;-68
2022/07/25 08:42:50;;;;;;;13.82;4.75;;;;;;;;;;6158021;23;20045;-68
2022/07/25 08:45:18;;;;;;;6.72;4.43;;;;;;;;;;6157956;23;20001;-68
2022/07/25 08:47:44;;;;;;;6.18;4.80;;;;;;;;;;6157879;23;20005;-68
2022/07/25 08:50:12;;;;;;;9.90;4.78;;;;;;;;;;6157928;23;20032;-68
2022/07/25 08:52:38;;;;;;;9.38;4.57;;;;;;;;;;6158650;23;20012;-68
2022/07/25 08:55:06;;;;;;;9.73;4.95;;;;;;;;;;6158068;23;20429;-68
2022/07/25 08:57:33;;;;;;;4.88;4.38;;;;;;;;;;6157829;23;20006;-68
2022/07/25 09:00:00;;;;;;;6.95;4.35;;;;;;;;;;6157476;23;20005;-68
2022/07/25 09:02:26;;;;;;;5.93;4.30;;;;;;;;;;6158455;23;20009;-68
2022/07/25 09:04:52;;;;;;;4.40;4.10;;;;;;;;;;6157367;23;20521;-68
2022/07/25 09:07:29;;;;;;;6.82;4.80;;;;;;;;;;6157392;23;20006;-68
2022/07/25 09:09:55;;;;;;;7.30;4.20;;;;;;;;;;6157164;23;20001;-68
2022/07/25 09:12:30;;;;;;;4.97;3.92;;;;;;;;;;6157754;23;20026;-69
2022/07/25 09:14:56;;;;;;;4.40;4.00;;;;;;;;;;6157233;23;20009;-68
2022/07/25 09:17:22;;;;;;;5.30;4.15;;;;;;;;;;6157333;23;20006;-68
2022/07/25 09:19:54;;;;;;;8.00;4.38;;;;;;;;;;6157140;23;20056;-68
2022/07/25 09:22:20;;;;;;;8.35;4.93;;;;;;;;;;6157063;23;20016;-68
2022/07/25 09:24:47;;;;;;;5.68;4.50;;;;;;;;;;6157369;23;20005;-68
2022/07/25 09:27:14;;;;;;;6.57;4.70;;;;;;;;;;6157977;23;20397;-68
2022/07/25 09:29:44;;;;;;;6.10;4.85;;;;;;;;;;6157553;23;20012;-68
2022/07/25 09:32:20;;;;;;;5.22;4.72;;;;;;;;;;6158237;23;20005;-68
2022/07/25 09:34:47;;;;;;;8.38;4.25;;;;;;;;;;6158207;23;20421;-69
2022/07/25 09:37:14;;;;;;;6.93;4.28;;;;;;;;;;6157465;23;20005;-69
2022/07/25 09:39:45;;;;;;;5.80;4.65;;;;;;;;;;6156943;23;20005;-69
2022/07/25 09:42:11;;;;;;;;;;;;;;;;;;6157469;23;20009;-69
2022/07/25 09:44:37;;;;;;;6.97;4.25;;;;;;;;;;6157701;23;19912;-69
2022/07/25 09:47:13;;;;;;;5.45;4.25;;;;;;;;;;6157720;23;20006;-69
2022/07/25 09:49:43;;;;;;;5.63;4.35;;;;;;;;;;6157336;23;20004;-69
2022/07/25 09:52:10;;;;;;;5.68;4.93;;;;;;;;;;6157370;23;20056;-69
2022/07/25 09:54:38;;;;;;;9.25;4.47;;;;;;;;;;6157067;23;20017;-69
2022/07/25 09:57:04;;;;;;;7.75;4.28;;;;;;;;;;6156823;23;20441;-68
2022/07/25 09:59:30;;;;;;;6.97;4.80;;;;;;;;;;6156928;23;19998;-69
2022/07/25 10:02:08;;;;;;;5.53;4.20;;;;;;;;;;6157169;23;20456;-69
2022/07/25 10:04:38;;;;;;;5.97;4.22;;;;;;;;;;6157480;23;20027;-69
2022/07/25 10:07:08;;;;;;;5.90;4.68;;;;;;;;;;6157163;23;20421;-69
2022/07/25 10:09:41;;;;;;;5.57;4.47;;;;;;;;;;6156545;23;20001;-69
2022/07/25 10:12:08;;;;;;;5.30;4.80;;;;;;;;;;6157552;23;20044;-69
2022/07/25 10:14:35;;;;;;;8.25;4.88;;;;;;;;;;6157409;23;20002;-68
2022/07/25 10:17:01;;;;;;;6.32;4.93;;;;;;;;;;6156728;23;20005;-69
2022/07/25 10:19:41;;;;;;;5.82;4.28;;;;;;;;;;6157289;23;19998;-69
2022/07/25 10:22:08;;;;;;;5.22;4.72;;;;;;;;;;6157175;23;20014;-69
2022/07/25 10:24:36;;;;;;;4.55;4.07;;;;;;;;;;6156927;23;20405;-69
2022/07/25 10:27:10;;;;;;;7.35;4.93;;;;;;;;;;6156908;23;20005;-69
2022/07/25 10:29:37;;;;;;;6.55;4.57;;;;;;;;;;6156911;23;20001;-69
2022/07/25 10:32:12;;;;;;;6.22;4.75;;;;;;;;;;6156609;23;20013;-69
2022/07/25 10:34:39;;;;;;;10.07;4.90;;;;;;;;;;6157672;23;20500;-69
2022/07/25 10:37:13;;;;;;;7.00;4.78;;;;;;;;;;6156804;23;20004;-69
2022/07/25 10:39:40;;;;;;;6.57;4.78;;;;;;;;;;6156621;23;20044;-69
2022/07/25 10:42:07;;;;;;;5.72;5.07;;;;;;;;;;6156333;23;20013;-69
2022/07/25 10:44:40;;;;;;;6.63;4.65;;;;;;;;;;6156687;23;20009;-69
2022/07/25 10:47:09;;;;;;;7.32;4.63;;;;;;;;;;6157296;23;20006;-69
2022/07/25 10:49:37;;;;;;;5.55;5.05;;;;;;;;;;6156370;23;20072;-69
2022/07/25 10:52:03;;;;;;;7.07;4.78;;;;;;;;;;6156407;23;20548;-69
2022/07/25 10:54:38;;;;;;;5.88;4.70;;;;;;;;;;6156456;23;20021;-69
2022/07/25 10:57:05;;;;;;;8.10;4.75;;;;;;;;;;6156399;23;20002;-69
2022/07/25 10:59:35;;;;;;;5.55;5.00;;;;;;;;;;6156734;23;20006;-69
2022/07/25 11:02:02;;;;;;;7.32;4.57;;;;;;;;;;6157566;23;20005;-69
2022/07/25 11:04:28;;;;;;;10.73;4.88;;;;;;;;;;6157026;23;20421;-69
2022/07/25 11:06:54;;;;;;;7.40;4.40;;;;;;;;;;6156700;23;20002;-69
2022/07/25 11:09:20;;;;;;;8.15;5.35;;;;;;;;;;6156196;23;20006;-69
2022/07/25 11:11:48;;;;;;;11.00;5.35;;;;;;;;;;6156708;23;20009;-68
2022/07/25 11:14:24;;;;;;;8.07;5.40;;;;;;;;;;6156774;23;20041;-69
2022/07/25 11:16:52;;;;;;;7.93;5.28;;;;;;;;;;6156661;23;20001;-69
2022/07/25 11:19:18;;;;;;;7.50;5.15;;;;;;;;;;6156971;23;20002;-69
2022/07/25 11:21:46;;;;;;;9.48;5.47;;;;;;;;;;6157248;23;20005;-69
2022/07/25 11:24:12;;;;;;;7.90;5.40;;;;;;;;;;6156807;23;20005;-69
2022/07/25 11:26:45;;;;;;;5.93;4.95;;;;;;;;;;6156676;23;20029;-69
2022/07/25 11:29:25;;;;;;;5.93;5.10;;;;;;;;;;6157176;23;20056;-69
2022/07/25 11:31:55;;;;;;;8.65;5.53;;;;;;;;;;6156216;23;20063;-68
2022/07/25 11:34:23;;;;;;;8.07;5.22;;;;;;;;;;6155822;23;20009;-68
2022/07/25 11:36:50;;;;;;;8.20;5.40;;;;;;;;;;6156141;23;20009;-68
2022/07/25 11:39:16;;;;;;;7.70;5.55;;;;;;;;;;6156268;23;20005;-69
2022/07/25 11:41:43;;;;;;;7.47;5.10;;;;;;;;;;6156068;23;20032;-69
2022/07/25 11:44:09;;;;;;;8.85;5.57;;;;;;;;;;6156963;23;20448;-69
2022/07/25 11:46:44;;;;;;;8.23;5.47;;;;;;;;;;6156600;23;20002;-69
2022/07/25 11:49:10;;;;;;;5.57;5.07;;;;;;;;;;6156642;23;20104;-69
2022/07/25 11:51:37;;;;;;;7.10;5.03;;;;;;;;;;6158764;23;20294;-69
2022/07/25 11:54:12;;;;;;;11.38;5.88;;;;;;;;;;6157676;23;20026;-69
2022/07/25 11:56:38;;;;;;;7.93;5.90;;;;;;;;;;6158025;23;20047;-69
2022/07/25 11:59:04;;;;;;;5.88;5.10;;;;;;;;;;6158412;23;20001;-69
2022/07/25 12:01:35;;;;;;;9.50;5.00;;;;;;;;;;6158425;23;20009;-69
2022/07/25 12:04:09;;;;;;;6.85;5.55;;;;;;;;;;6158511;23;20006;-69
2022/07/25 12:06:35;;;;;;;9.85;5.75;;;;;;;;;;6158333;23;20005;-69
2022/07/25 12:09:11;;;;;;;8.13;5.30;;;;;;;;;;6158089;23;20002;-69
2022/07/25 12:11:38;;;;;;;7.00;4.85;;;;;;;;;;6158309;23;20006;-69
2022/07/25 12:14:05;;;;;;;10.45;5.50;;;;;;;;;;6158367;23;20008;-69
2022/07/25 12:16:31;;;;;;;6.93;5.57;;;;;;;;;;6156701;23;20377;-69
2022/07/25 12:18:57;;;;;;;8.23;5.30;;;;;;;;;;6158181;23;20008;-69
2022/07/25 12:21:24;;;;;;;7.38;4.93;;;;;;;;;;6157845;23;20032;-69
2022/07/25 12:23:50;;;;;;;12.15;5.15;;;;;;;;;;6157524;23;20009;-69
2022/07/25 12:26:16;;;;;;;8.90;4.93;;;;;;;;;;6157792;23;20006;-69
2022/07/25 12:28:42;;;;;;;8.68;4.97;;;;;;;;;;6158075;23;20001;-69
2022/07/25 12:31:08;;;;;;;7.00;4.90;;;;;;;;;;6157717;23;20137;-68
2022/07/25 12:33:35;;;;;;;7.03;4.72;;;;;;;;;;6158188;23;20421;-69
2022/07/25 12:36:01;;;;;;;6.38;4.80;;;;;;;;;;6158039;23;20013;-69
2022/07/25 12:38:28;;;;;;;5.43;4.40;;;;;;;;;;6158122;23;20005;-69
2022/07/25 12:40:54;;;;;;;10.00;4.90;;;;;;;;;;6157664;23;20013;-69
2022/07/25 12:43:21;;;;;;;7.28;5.38;;;;;;;;;;6158623;23;20080;-69
2022/07/25 12:45:47;;;;;;;8.55;5.30;;;;;;;;;;6157572;23;20337;-69
2022/07/25 12:48:14;;;;;;;5.88;5.07;;;;;;;;;;6157948;23;20069;-69
2022/07/25 12:50:41;;;;;;;10.07;5.28;;;;;;;;;;6157619;23;20488;-69
2022/07/25 12:53:07;;;;;;;6.80;4.80;;;;;;;;;;6158098;23;20061;-69
2022/07/25 12:55:33;;;;;;;10.05;5.10;;;;;;;;;;6157369;23;20444;-69
2022/07/25 12:58:00;;;;;;;7.85;4.50;;;;;;;;;;6158227;23;20017;-69
2022/07/25 13:00:26;;;;;;;7.22;5.50;;;;;;;;;;6157508;23;20028;-69
2022/07/25 13:02:54;;;;;;;8.68;4.80;;;;;;;;;;6157846;23;20455;-69
2022/07/25 13:05:21;;;;;;;5.28;4.60;;;;;;;;;;6157848;23;20009;-69
2022/07/25 13:07:48;;;;;;;7.28;5.30;;;;;;;;;;6157765;23;20009;-68
2022/07/25 13:10:14;;;;;;;8.45;5.00;;;;;;;;;;6157573;23;20005;-69
2022/07/25 13:12:40;;;;;;;7.13;4.45;;;;;;;;;;6157582;23;20064;-69
2022/07/25 13:15:07;;;;;;;5.70;4.70;;;;;;;;;;6157701;23;20002;-68
2022/07/25 13:17:33;;;;;;;5.57;5.07;;;;;;;;;;6158374;23;20013;-69
2022/07/25 13:19:59;;;;;;;9.95;4.72;;;;;;;;;;6157826;23;20012;-69
2022/07/25 13:22:25;;;;;;;7.95;4.93;;;;;;;;;;6157158;23;20026;-69
2022/07/25 13:24:52;;;;;;;7.18;5.03;;;;;;;;;;6157654;23;20084;-69
2022/07/25 13:27:19;;;;;;;8.48;5.30;;;;;;;;;;6157264;23;20009;-69
2022/07/25 13:29:45;;;;;;;22.55;6.47;;;;;;;;;;6157595;23;20001;-69
2022/07/25 13:32:12;;;;;;;13.35;5.40;;;;;;;;;;6157450;23;20002;-69
2022/07/25 13:34:38;;;;;;;9.75;4.95;;;;;;;;;;6157888;23;20405;-69
2022/07/25 13:37:05;;;;;;;6.20;5.20;;;;;;;;;;6157496;23;20001;-69
2022/07/25 13:39:31;;;;;;;13.60;4.63;;;;;;;;;;6157282;23;20460;-69
2022/07/25 13:41:57;;;;;;;11.95;5.55;;;;;;;;;;6157364;23;20013;-69
2022/07/25 13:44:23;;;;;;;7.15;4.53;;;;;;;;;;6157665;23;20012;-69
2022/07/25 13:46:49;;;;;;;5.93;5.30;;;;;;;;;;6157079;23;20002;-69
2022/07/25 13:49:16;;;;;;;8.10;5.93;;;;;;;;;;6157023;23;20003;-69
2022/07/25 13:51:44;;;;;;;6.65;5.35;;;;;;;;;;6157285;23;20013;-69
2022/07/25 13:54:10;;;;;;;9.88;5.47;;;;;;;;;;6156713;23;20017;-69
2022/07/25 13:56:37;;;;;;;10.82;6.03;;;;;;;;;;6157758;23;20002;-69
2022/07/25 13:59:03;;;;;;;7.93;5.65;;;;;;;;;;6156904;23;20337;-69
2022/07/25 14:01:29;;;;;;;10.05;5.68;;;;;;;;;;6157330;23;20006;-69
2022/07/25 14:03:55;;;;;;;14.77;5.60;;;;;;;;;;6157841;23;20009;-69
2022/07/25 14:06:22;;;;;;;8.38;5.45;;;;;;;;;;6157549;23;20005;-69
2022/07/25 14:08:48;;;;;;;7.68;5.25;;;;;;;;;;6156670;23;20068;-69
2022/07/25 14:11:14;;;;;;;8.85;5.82;;;;;;;;;;6156818;23;20005;-69
2022/07/25 14:13:42;;;;;;;6.22;4.88;;;;;;;;;;6156428;23;20012;-69
2022/07/25 14:16:08;;;;;;;7.00;4.80;;;;;;;;;;6156679;23;20013;-69
2022/07/25 14:18:34;;;;;;;8.73;5.25;;;;;;;;;;6157279;23;19997;-69
2022/07/25 14:21:00;;;;;;;10.10;5.82;;;;;;;;;;6157046;23;20006;-69
2022/07/25 14:23:26;;;;;;;10.60;4.80;;;;;;;;;;6157361;23;20050;-69
2022/07/25 14:25:52;;;;;;;7.93;5.20;;;;;;;;;;6157049;23;20017;-69
2022/07/25 14:28:19;;;;;;;7.78;5.88;;;;;;;;;;6157293;23;20021;-69
2022/07/25 14:30:45;;;;;;;9.18;5.82;;;;;;;;;;6157273;23;20009;-69
2022/07/25 14:33:11;;;;;;;7.55;5.80;;;;;;;;;;6157358;23;20009;-69
2022/07/25 14:35:38;;;;;;;8.05;6.18;;;;;;;;;;6156620;23;20002;-69
2022/07/25 14:38:05;;;;;;;9.02;5.88;;;;;;;;;;6156648;23;20005;-69
2022/07/25 14:40:31;;;;;;;7.22;5.88;;;;;;;;;;6156480;23;20322;-69